Time;durP1;ratioP1;P1;durP2;ratioP2;P2;SDS_P1;SDS_P2;PMS_P1;PMS_P2;Temp;Humidity;BMP_temperature;BMP_pressure;BME280_temperature;BME280_humidity;BME280_pressure;Samples;Min_cycle;Max_cycle;Signal;HPM_P1;HPM_P2
2023/07/18 00:01:23;;;;;;;1.10;1.03;;;;;;;13.63;100.00;101130.00;5019654;28;20187;-84
2023/07/18 00:03:49;;;;;;;0.93;0.93;;;;;;;13.64;100.00;101134.38;5018890;28;20199;-84
2023/07/18 00:06:17;;;;;;;1.50;1.40;;;;;;;13.60;100.00;101125.16;5010536;28;20646;-84
2023/07/18 00:08:43;;;;;;;7.67;1.07;;;;;;;13.61;100.00;101121.28;5036961;28;20203;-84
2023/07/18 00:11:08;;;;;;;2.30;2.03;;;;;;;13.66;100.00;101135.66;5036391;28;20649;-84
2023/07/18 00:13:33;;;;;;;2.60;1.70;;;;;;;13.64;100.00;101124.19;5006223;28;20296;-83
2023/07/18 00:15:59;;;;;;;5.93;2.30;;;;;;;13.63;100.00;101124.50;5030196;28;20195;-85
2023/07/18 00:18:24;;;;;;;1.50;1.40;;;;;;;13.65;100.00;101133.25;5026412;28;20217;-84
2023/07/18 00:20:49;;;;;;;1.40;1.30;;;;;;;13.63;100.00;101130.81;5033483;28;20184;-85
2023/07/18 00:23:15;;;;;;;2.07;1.50;;;;;;;13.62;100.00;101125.63;5014010;28;20672;-85
2023/07/18 00:25:40;;;;;;;2.90;1.50;;;;;;;13.63;100.00;101124.50;5027608;28;20195;-85
2023/07/18 00:28:06;;;;;;;0.87;0.83;;;;;;;13.61;100.00;101124.81;5038427;28;20252;-85
2023/07/18 00:30:31;;;;;;;1.73;1.63;;;;;;;13.59;100.00;101123.50;5012160;28;20200;-85
2023/07/18 00:32:56;;;;;;;0.90;0.90;;;;;;;13.65;100.00;101134.06;5027065;28;20571;-87
2023/07/18 00:35:22;;;;;;;9.53;1.93;;;;;;;13.59;100.00;101129.78;5033586;28;20211;-86
2023/07/18 00:37:48;;;;;;;0.87;0.70;;;;;;;13.59;100.00;101131.72;5027431;28;20220;-86
2023/07/18 00:40:14;;;;;;;1.20;1.10;;;;;;;13.58;100.00;101124.63;5026427;28;20180;-86
2023/07/18 00:42:41;;;;;;;9.03;1.53;;;;;;;13.62;100.00;101122.91;5034551;28;20208;-86
2023/07/18 00:45:08;;;;;;;2.00;1.80;;;;;;;13.63;100.00;101135.50;5031398;28;20245;-84
2023/07/18 00:47:37;;;;;;;3.70;2.60;;;;;;;13.61;100.00;101127.56;5036698;28;20190;-84
2023/07/18 00:50:07;;;;;;;0.83;0.83;;;;;;;13.64;100.00;101121.44;5029971;28;20237;-84
2023/07/18 00:52:32;;;;;;;1.67;1.57;;;;;;;13.63;100.00;101122.56;5030721;28;20199;-84
2023/07/18 00:54:58;;;;;;;1.53;0.73;;;;;;;13.64;100.00;101120.63;5038609;28;20180;-84
2023/07/18 00:57:24;;;;;;;8.97;0.90;;;;;;;13.62;100.00;101120.97;5037851;28;20199;-84
2023/07/18 00:59:50;;;;;;;2.53;1.90;;;;;;;13.56;100.00;101104.91;5038607;28;20616;-85
2023/07/18 01:02:15;;;;;;;4.20;1.77;;;;;;;13.60;100.00;101108.66;5037315;28;20208;-85
2023/07/18 01:04:41;;;;;;;0.67;0.67;;;;;;;13.70;100.00;101103.69;5036872;28;20183;-85
2023/07/18 01:07:06;;;;;;;4.40;1.30;;;;;;;13.64;100.00;101110.47;5013782;28;20184;-85
2023/07/18 01:09:31;;;;;;;14.27;1.77;;;;;;;13.61;100.00;101102.06;5037516;28;20693;-85
2023/07/18 01:11:57;;;;;;;2.00;1.27;;;;;;;13.62;100.00;101109.97;5019946;28;20211;-85
2023/07/18 01:14:24;;;;;;;7.17;2.10;;;;;;;13.61;100.00;101113.84;5029954;28;20196;-85
2023/07/18 01:16:52;;;;;;;1.90;1.53;;;;;;;13.66;100.00;101108.22;5037834;28;20195;-84
2023/07/18 01:19:18;;;;;;;1.07;1.07;;;;;;;13.72;100.00;101097.06;5037339;28;20201;-85
2023/07/18 01:21:43;;;;;;;2.70;1.10;;;;;;;13.72;100.00;101100.63;5028885;28;20213;-84
2023/07/18 01:24:08;;;;;;;0.90;0.80;;;;;;;13.74;100.00;101103.88;5037574;28;20194;-86
2023/07/18 01:26:34;;;;;;;21.17;2.10;;;;;;;13.75;100.00;101093.72;5037521;28;20186;-85
2023/07/18 01:28:59;;;;;;;2.87;2.67;;;;;;;13.74;100.00;101089.31;5030329;28;20246;-85
2023/07/18 01:31:24;;;;;;;2.97;1.73;;;;;;;13.81;100.00;101093.25;5038154;28;20266;-85
2023/07/18 01:33:50;;;;;;;0.97;0.93;;;;;;;13.78;100.00;101082.91;5011681;28;20686;-83
2023/07/18 01:36:15;;;;;;;2.90;2.00;;;;;;;13.80;100.00;101099.06;5032145;28;20200;-85
2023/07/18 01:38:41;;;;;;;1.93;1.83;;;;;;;13.78;100.00;101091.16;5012291;28;20211;-85
2023/07/18 01:41:07;;;;;;;1.33;1.23;;;;;;;13.79;100.00;101083.72;5029779;28;20176;-85
2023/07/18 01:43:34;;;;;;;3.23;2.77;;;;;;;13.79;100.00;101090.00;5037911;28;20202;-84
2023/07/18 01:46:00;;;;;;;2.43;1.97;;;;;;;13.85;100.00;101085.97;5023762;28;20257;-86
2023/07/18 01:48:26;;;;;;;6.47;2.67;;;;;;;13.88;100.00;101081.78;5033234;28;20180;-84
2023/07/18 01:50:52;;;;;;;4.37;1.97;;;;;;;13.87;100.00;101086.47;5020548;28;20245;-84
2023/07/18 01:53:17;;;;;;;3.27;2.63;;;;;;;13.87;100.00;101083.72;5036456;28;20283;-84
2023/07/18 01:55:42;;;;;;;1.77;1.67;;;;;;;13.81;100.00;101076.78;5019000;28;20260;-84
2023/07/18 01:58:07;;;;;;;5.97;2.70;;;;;;;13.78;100.00;101093.88;5036445;28;20631;-84
2023/07/18 02:00:35;;;;;;;3.53;2.33;;;;;;;13.73;100.00;101082.22;5036595;28;20179;-84
2023/07/18 02:03:01;;;;;;;3.17;2.83;;;;;;;13.70;100.00;101089.16;5032496;28;20204;-83
2023/07/18 02:05:28;;;;;;;4.20;1.60;;;;;;;13.79;100.00;101092.75;5031984;28;20179;-84
2023/07/18 02:07:54;;;;;;;2.40;1.80;;;;;;;13.73;100.00;101088.50;5010585;28;20747;-86
2023/07/18 02:10:20;;;;;;;2.43;1.00;;;;;;;13.75;100.00;101094.53;5027626;28;20187;-83
2023/07/18 02:12:51;;;;;;;1.43;1.33;;;;;;;13.79;100.00;101089.19;5034250;28;20204;-85
2023/07/18 02:15:16;;;;;;;2.70;1.90;;;;;;;13.85;100.00;101087.91;5015197;28;20212;-85
2023/07/18 02:17:42;;;;;;;1.47;1.37;;;;;;;13.90;100.00;101090.53;5033998;28;20238;-84
2023/07/18 02:20:11;;;;;;;1.13;1.07;;;;;;;13.92;100.00;101091.03;5035762;28;20207;-84
2023/07/18 02:22:38;;;;;;;1.63;1.00;;;;;;;13.87;100.00;101097.47;5035747;28;20195;-84
2023/07/18 02:25:04;;;;;;;1.67;1.53;;;;;;;13.84;100.00;101094.53;5035561;28;20190;-82
2023/07/18 02:27:34;;;;;;;1.90;1.73;;;;;;;13.84;100.00;101094.53;5035990;28;20211;-82
2023/07/18 02:30:03;;;;;;;3.40;2.27;;;;;;;13.78;100.00;101098.56;5035371;28;20184;-84
2023/07/18 02:32:30;;;;;;;1.87;1.77;;;;;;;13.79;100.00;101094.69;5035416;28;20192;-84
2023/07/18 02:34:56;;;;;;;2.67;2.47;;;;;;;13.72;100.00;101106.13;5035316;28;20258;-86
2023/07/18 02:37:23;;;;;;;3.57;2.57;;;;;;;13.65;100.00;101092.84;5035236;28;20741;-84
2023/07/18 02:39:48;;;;;;;1.23;1.23;;;;;;;13.66;100.00;101110.94;5015033;28;20337;-83
2023/07/18 02:42:13;;;;;;;1.53;1.03;;;;;;;13.65;100.00;101114.00;5028890;28;20286;-83
2023/07/18 02:44:39;;;;;;;0.63;0.63;;;;;;;13.67;100.00;101106.28;5017224;28;20604;-83
2023/07/18 02:47:04;;;;;;;2.40;2.20;;;;;;;13.63;100.00;101116.28;5034883;28;20172;-84
2023/07/18 02:49:30;;;;;;;11.97;2.83;;;;;;;13.63;100.00;101121.75;5033371;28;20186;-83
2023/07/18 02:51:55;;;;;;;3.23;2.93;;;;;;;13.58;100.00;101121.88;5016359;28;20226;-83
2023/07/18 02:54:20;;;;;;;8.87;2.17;;;;;;;13.60;100.00;101136.94;5034225;28;20179;-84
2023/07/18 02:56:46;;;;;;;7.83;1.90;;;;;;;13.68;100.00;101127.13;5034243;28;20334;-83
2023/07/18 02:59:11;;;;;;;2.20;1.57;;;;;;;13.60;100.00;101134.19;5016451;28;20215;-84
2023/07/18 03:01:36;;;;;;;2.00;1.57;;;;;;;13.61;100.00;101132.25;5026256;28;20229;-84
2023/07/18 03:04:01;;;;;;;6.23;2.60;;;;;;;13.61;100.00;101141.31;5010390;28;20214;-84
2023/07/18 03:06:27;;;;;;;4.70;2.23;;;;;;;13.65;100.00;101136.78;5035523;28;20658;-83
2023/07/18 03:08:53;;;;;;;1.70;0.77;;;;;;;13.75;100.00;101135.72;5027290;28;20187;-84
2023/07/18 03:11:18;;;;;;;3.20;2.87;;;;;;;13.68;100.00;101129.84;5028929;28;20556;-83
2023/07/18 03:13:44;;;;;;;1.17;1.07;;;;;;;13.70;100.00;101141.34;5033414;28;20692;-83
2023/07/18 03:16:09;;;;;;;2.17;1.63;;;;;;;13.75;100.00;101140.41;5017875;28;20190;-84
2023/07/18 03:18:34;;;;;;;1.67;1.37;;;;;;;13.80;100.00;101140.25;5037199;28;20599;-84
2023/07/18 03:21:00;;;;;;;1.93;1.50;;;;;;;13.83;100.00;101142.38;5035972;28;20660;-84
2023/07/18 03:23:26;;;;;;;3.13;2.93;;;;;;;13.79;100.00;101135.91;5036364;28;20222;-84
2023/07/18 03:25:51;;;;;;;0.70;0.70;;;;;;;13.78;100.00;101142.50;5010115;28;20208;-85
2023/07/18 03:28:17;;;;;;;4.17;2.10;;;;;;;13.78;100.00;101132.34;5036539;28;20175;-84
2023/07/18 03:30:43;;;;;;;3.17;1.50;;;;;;;13.77;100.00;101133.47;5035426;28;20176;-84
2023/07/18 03:33:08;;;;;;;2.97;2.67;;;;;;;13.83;100.00;101137.69;5035081;28;20207;-84
2023/07/18 03:35:35;;;;;;;1.50;1.40;;;;;;;13.86;100.00;101130.75;5035373;28;20191;-83
2023/07/18 03:38:00;;;;;;;3.03;2.03;;;;;;;13.83;100.00;101128.63;5034931;28;20226;-85
2023/07/18 03:40:25;;;;;;;0.93;0.93;;;;;;;13.95;100.00;101128.84;5034327;28;20661;-84
2023/07/18 03:42:51;;;;;;;0.87;0.87;;;;;;;13.92;100.00;101118.50;5031722;28;20677;-81
2023/07/18 03:45:16;;;;;;;0.40;0.40;;;;;;;13.92;100.00;101121.25;5029559;28;20259;-85
2023/07/18 03:47:43;;;;;;;0.80;0.73;;;;;;;13.92;100.00;101124.00;5026650;28;20172;-84
2023/07/18 03:50:10;;;;;;;6.50;1.80;;;;;;;14.00;100.00;101114.97;5026283;28;20210;-82
2023/07/18 03:52:36;;;;;;;0.27;0.27;;;;;;;14.01;100.00;101116.59;5008231;28;20211;-84
2023/07/18 03:55:03;;;;;;;0.00;0.00;;;;;;;14.17;100.00;101130.69;5001262;28;20190;-84
2023/07/18 03:57:29;;;;;;;0.00;0.00;;;;;;;14.10;100.00;101128.44;5034293;28;20744;-83
2023/07/18 03:59:55;;;;;;;0.63;0.63;;;;;;;14.19;100.00;101123.78;5033795;28;20180;-83
2023/07/18 04:02:20;;;;;;;1.37;1.33;;;;;;;14.12;100.00;101115.16;5025378;28;20284;-84
2023/07/18 04:04:46;;;;;;;0.30;0.30;;;;;;;14.24;100.00;101122.81;5013309;28;20230;-84
2023/07/18 04:07:11;;;;;;;0.33;0.33;;;;;;;14.17;100.00;101115.00;5025860;28;20172;-83
2023/07/18 04:09:36;;;;;;;0.30;0.30;;;;;;;14.29;100.00;101123.47;5030833;28;20187;-84
2023/07/18 04:12:02;;;;;;;0.00;0.00;;;;;;;14.29;100.00;101125.41;5033586;28;20199;-84
2023/07/18 04:14:27;;;;;;;1.57;1.57;;;;;;;14.36;100.00;101128.50;5012580;28;20226;-84
2023/07/18 04:16:52;;;;;;;1.07;1.00;;;;;;;14.34;100.00;101114.28;5033006;28;20573;-84
2023/07/18 04:19:19;;;;;;;0.00;0.00;;;;;;;14.40;100.00;101114.91;5033967;28;20225;-85
2023/07/18 04:21:44;;;;;;;0.00;0.00;;;;;;;14.47;100.00;101116.13;5015542;28;20290;-85
2023/07/18 04:24:10;;;;;;;0.47;0.47;;;;;;;14.52;100.00;101126.94;5007796;28;20284;-84
2023/07/18 04:26:35;;;;;;;0.43;0.10;;;;;;;14.54;100.00;101115.63;5025066;28;20179;-83
2023/07/18 04:29:03;;;;;;;0.00;0.00;;;;;;;14.52;100.00;101118.69;5025692;28;20187;-83
2023/07/18 04:31:28;;;;;;;0.40;0.40;;;;;;;14.64;100.00;101123.56;5024606;28;20259;-85
2023/07/18 04:33:53;;;;;;;0.00;0.00;;;;;;;14.61;100.00;101113.22;5033507;28;20612;-84
2023/07/18 04:36:18;;;;;;;0.07;0.07;;;;;;;14.73;100.00;101112.56;5033903;28;20187;-84
2023/07/18 04:38:44;;;;;;;0.00;0.00;;;;;;;14.83;100.00;101113.06;5033732;28;20263;-84
2023/07/18 04:41:09;;;;;;;3.40;0.17;;;;;;;14.83;100.00;101115.81;5025438;28;20179;-84
2023/07/18 04:43:34;;;;;;;0.00;0.00;;;;;;;14.94;100.00;101121.81;5033074;28;20200;-84
2023/07/18 04:46:00;;;;;;;0.00;0.00;;;;;;;15.09;100.00;101113.06;5026142;28;20180;-84
2023/07/18 04:48:25;;;;;;;0.00;0.00;;;;;;;15.14;100.00;101118.38;5034014;28;20204;-83
2023/07/18 04:51:01;;;;;;;0.00;0.00;;;;;;;15.16;100.00;101115.31;5033223;28;20191;-85
2023/07/18 04:53:27;;;;;;;0.20;0.20;;;;;;;15.15;100.00;101108.19;5033704;28;20207;-85
2023/07/18 04:55:55;;;;;;;0.00;0.00;;;;;;;15.05;100.00;101103.84;5033221;28;20553;-84
2023/07/18 04:58:22;;;;;;;0.00;0.00;;;;;;;15.07;100.00;101100.75;5033393;28;20211;-84
2023/07/18 05:00:47;;;;;;;0.00;0.00;;;;;;;15.14;100.00;101112.88;5015258;28;20187;-85
2023/07/18 05:03:13;;;;;;;0.00;0.00;;;;;;;15.18;100.00;101113.03;5033079;28;20295;-85
2023/07/18 05:05:38;;;;;;;0.00;0.00;;;;;;;15.32;100.00;101105.38;5008295;28;20206;-85
2023/07/18 05:08:03;;;;;;;0.00;0.00;;;;;;;15.54;100.00;101106.31;5025342;28;20541;-84
2023/07/18 05:10:29;;;;;;;0.20;0.20;;;;;;;15.53;100.00;101099.22;5020320;28;20251;-83
2023/07/18 05:12:56;;;;;;;0.00;0.00;;;;;;;15.57;100.00;101098.22;5013653;28;20200;-84
2023/07/18 05:15:21;;;;;;;0.00;0.00;;;;;;;15.71;99.65;101103.53;5025304;28;20207;-84
2023/07/18 05:17:47;;;;;;;0.00;0.00;;;;;;;15.77;98.37;101105.81;5027642;28;20685;-85
2023/07/18 05:20:13;;;;;;;0.00;0.00;;;;;;;15.83;97.77;101106.41;5020337;28;20190;-84
2023/07/18 05:22:44;;;;;;;0.00;0.00;;;;;;;15.76;97.56;101106.91;5011722;28;20192;-85
2023/07/18 05:25:14;;;;;;;0.00;0.00;;;;;;;15.74;96.92;101102.88;5023936;28;20187;-84
2023/07/18 05:27:40;;;;;;;2.10;0.67;;;;;;;15.69;96.89;101098.38;5023742;28;20222;-84
2023/07/18 05:30:13;;;;;;;0.00;0.00;;;;;;;15.76;97.80;101106.91;5031458;28;20180;-85
2023/07/18 05:32:38;;;;;;;0.00;0.00;;;;;;;15.87;99.17;101118.38;5028286;28;20195;-84
2023/07/18 05:35:04;;;;;;;0.70;0.70;;;;;;;15.67;97.64;101100.66;5030133;28;20207;-85
2023/07/18 05:37:30;;;;;;;0.93;0.93;;;;;;;15.64;97.31;101106.00;5034099;28;20230;-84
2023/07/18 05:39:55;;;;;;;0.07;0.07;;;;;;;15.65;97.30;101107.63;5033007;28;20793;-86
2023/07/18 05:42:21;;;;;;;0.27;0.27;;;;;;;15.63;97.05;101104.41;5034298;28;20199;-84
2023/07/18 05:44:47;;;;;;;0.33;0.33;;;;;;;15.62;97.10;101102.75;5033663;28;20180;-85
2023/07/18 05:47:12;;;;;;;0.00;0.00;;;;;;;15.62;96.25;101098.09;5033435;28;20547;-84
2023/07/18 05:49:37;;;;;;;0.00;0.00;;;;;;;15.81;96.56;101103.19;5004968;28;20215;-89
2023/07/18 05:52:03;;;;;;;0.10;0.10;;;;;;;15.82;97.03;101106.75;4998710;28;20577;-89
2023/07/18 05:54:30;;;;;;;0.50;0.37;;;;;;;15.74;97.26;101103.69;5006342;28;20184;-89
2023/07/18 05:56:57;;;;;;;0.43;0.30;;;;;;;15.81;96.92;101105.94;5003074;28;20682;-89
2023/07/18 05:59:22;;;;;;;0.30;0.30;;;;;;;15.84;95.64;101101.72;5020591;28;20543;-90
2023/07/18 06:01:48;;;;;;;12.00;1.77;;;;;;;15.71;94.67;101093.31;5004885;28;20200;-90
2023/07/18 06:04:15;;;;;;;0.57;0.57;;;;;;;15.83;95.10;101089.06;5024094;28;20226;-90
2023/07/18 06:06:41;;;;;;;2.90;2.70;;;;;;;15.75;94.36;101090.72;4998294;28;20176;-90
2023/07/18 06:09:07;;;;;;;3.03;1.93;;;;;;;15.71;94.19;101087.00;5024216;28;20259;-91
2023/07/18 06:11:33;;;;;;;8.37;0.97;;;;;;;15.79;94.45;101088.13;5006131;28;20204;-89
2023/07/18 06:13:59;;;;;;;0.10;0.10;;;;;;;15.86;94.65;101093.91;5024244;28;20286;-91
2023/07/18 06:16:25;;;;;;;2.73;1.73;;;;;;;15.89;93.68;101094.06;5025632;28;20192;-90
2023/07/18 06:18:50;;;;;;;0.60;0.60;;;;;;;16.01;93.23;101085.91;5006323;28;20184;-89
2023/07/18 06:21:15;;;;;;;1.40;1.30;;;;;;;16.10;92.16;101096.09;5026944;28;20275;-88
2023/07/18 06:23:41;;;;;;;1.37;1.00;;;;;;;16.13;90.55;101076.91;5025744;28;20242;-90
2023/07/18 06:26:06;;;;;;;1.07;0.97;;;;;;;16.25;90.78;101078.97;5027624;28;20230;-90
2023/07/18 06:28:31;;;;;;;0.23;0.17;;;;;;;16.31;89.12;101077.63;5010109;28;20183;-90
2023/07/18 06:30:57;;;;;;;0.00;0.00;;;;;;;16.47;89.24;101075.88;5027150;28;20638;-89
2023/07/18 06:33:23;;;;;;;0.00;0.00;;;;;;;16.55;89.27;101071.47;5003043;28;20644;-90
2023/07/18 06:35:55;;;;;;;0.00;0.00;;;;;;;16.68;88.45;101077.88;5031645;28;20183;-90
2023/07/18 06:38:21;;;;;;;0.90;0.90;;;;;;;16.75;88.68;101072.63;5006245;28;20255;-90
2023/07/18 06:40:48;;;;;;;0.00;0.00;;;;;;;16.78;87.09;101069.19;5025694;28;20194;-90
2023/07/18 06:43:13;;;;;;;0.00;0.00;;;;;;;16.85;86.37;101066.69;5009719;28;20207;-90
2023/07/18 06:45:39;;;;;;;0.53;0.53;;;;;;;16.92;84.98;101066.94;5026477;28;20605;-90
2023/07/18 06:48:05;;;;;;;0.37;0.37;;;;;;;17.05;85.20;101074.13;5009420;28;20183;-90
2023/07/18 06:50:30;;;;;;;0.43;0.43;;;;;;;16.93;84.37;101071.34;5026731;28;20183;-90
2023/07/18 06:52:56;;;;;;;0.00;0.00;;;;;;;17.01;83.49;101066.88;5009200;28;20203;-90
2023/07/18 06:55:21;;;;;;;0.57;0.57;;;;;;;17.10;83.80;101056.56;5002622;28;20235;-88
2023/07/18 06:57:48;;;;;;;0.37;0.37;;;;;;;17.21;84.26;101071.53;5007815;28;20212;-90
2023/07/18 07:00:14;;;;;;;0.30;0.30;;;;;;;17.28;82.75;101059.94;5003595;28;20623;-90
2023/07/18 07:02:39;;;;;;;1.70;1.33;;;;;;;17.23;83.43;101053.50;5006733;28;20239;-89
2023/07/18 07:05:05;;;;;;;0.43;0.37;;;;;;;17.45;83.14;101056.97;5007707;28;20185;-88
2023/07/18 07:07:30;;;;;;;1.87;0.97;;;;;;;17.30;82.83;101041.06;5014568;28;20631;-89
2023/07/18 07:09:55;;;;;;;1.80;1.50;;;;;;;17.39;83.22;101044.56;5012843;28;20204;-89
2023/07/18 07:12:21;;;;;;;1.60;1.47;;;;;;;17.35;83.33;101052.69;5022677;28;20235;-89
2023/07/18 07:14:46;;;;;;;0.53;0.47;;;;;;;17.36;82.64;101051.56;5015191;28;20279;-90
2023/07/18 07:17:11;;;;;;;2.73;1.17;;;;;;;17.36;82.40;101046.03;5014293;28;20199;-90
2023/07/18 07:19:36;;;;;;;3.30;0.43;;;;;;;17.52;82.42;101043.41;5014284;28;20703;-90
2023/07/18 07:22:02;;;;;;;0.77;0.70;;;;;;;17.51;82.08;101036.28;5014565;28;20209;-90
2023/07/18 07:24:27;;;;;;;6.90;1.23;;;;;;;17.74;82.65;101050.47;4996504;28;20207;-89
2023/07/18 07:26:52;;;;;;;0.80;0.73;;;;;;;17.78;81.34;101049.44;5004620;28;20279;-89
2023/07/18 07:29:18;;;;;;;1.13;1.13;;;;;;;17.87;81.95;101051.28;4996651;28;20194;-89
2023/07/18 07:31:43;;;;;;;22.40;0.50;;;;;;;17.88;81.12;101045.41;5015224;28;20572;-90
2023/07/18 07:34:08;;;;;;;1.10;0.90;;;;;;;17.91;81.59;101049.44;5007339;28;20222;-90
2023/07/18 07:36:33;;;;;;;0.30;0.30;;;;;;;17.92;80.60;101040.78;4999362;28;20200;-89
2023/07/18 07:38:59;;;;;;;0.73;0.50;;;;;;;17.88;79.88;101028.03;4996456;28;20180;-89
2023/07/18 07:41:24;;;;;;;0.87;0.87;;;;;;;17.85;79.68;101029.53;5003129;28;20673;-90
2023/07/18 07:43:50;;;;;;;0.70;0.70;;;;;;;17.94;79.36;101038.53;5005379;28;20608;-89
2023/07/18 07:46:15;;;;;;;0.50;0.50;;;;;;;18.03;79.94;101032.84;4996425;28;20507;-89
2023/07/18 07:48:41;;;;;;;8.10;2.10;;;;;;;17.99;79.16;101024.44;5004477;28;20270;-89
2023/07/18 07:51:06;;;;;;;0.83;0.83;;;;;;;18.17;78.37;101029.72;5008580;28;20265;-90
2023/07/18 07:53:31;;;;;;;0.30;0.30;;;;;;;18.33;78.87;101033.38;5015760;28;20235;-89
2023/07/18 07:55:57;;;;;;;1.47;1.00;;;;;;;18.35;78.12;101026.31;5004309;28;20281;-89
2023/07/18 07:58:22;;;;;;;0.30;0.30;;;;;;;18.43;78.43;101021.81;4996158;28;20583;-89
2023/07/18 08:00:47;;;;;;;0.33;0.33;;;;;;;18.49;78.42;101030.69;5021562;28;20262;-89
2023/07/18 08:03:13;;;;;;;2.50;1.07;;;;;;;18.56;77.49;101022.59;5004152;28;20289;-90
2023/07/18 08:05:38;;;;;;;0.83;0.47;;;;;;;18.54;77.52;101017.41;5030804;28;20543;-89
2023/07/18 08:08:03;;;;;;;1.57;1.07;;;;;;;18.50;77.35;101018.44;5003364;28;20177;-88
2023/07/18 08:10:29;;;;;;;3.37;1.67;;;;;;;18.53;76.74;101020.53;5013411;28;20185;-91
2023/07/18 08:12:54;;;;;;;4.10;1.40;;;;;;;18.59;76.90;101017.16;4995623;28;20613;-89
2023/07/18 08:15:20;;;;;;;0.20;0.20;;;;;;;18.78;77.58;101027.59;5013574;28;20187;-88
2023/07/18 08:17:45;;;;;;;0.30;0.30;;;;;;;18.93;77.49;101026.84;5004330;28;20222;-89
2023/07/18 08:20:12;;;;;;;0.00;0.00;;;;;;;18.88;74.30;101007.72;5000882;28;20267;-89
2023/07/18 08:22:38;;;;;;;5.93;0.63;;;;;;;19.07;75.00;101011.78;4998533;28;20262;-89
2023/07/18 08:25:06;;;;;;;1.60;1.40;;;;;;;19.19;73.50;101006.16;4995807;28;20188;-89
2023/07/18 08:27:32;;;;;;;1.10;0.90;;;;;;;19.17;74.08;101000.97;5003625;28;20188;-90
2023/07/18 08:29:57;;;;;;;0.77;0.77;;;;;;;19.16;72.86;100993.84;4995470;28;20211;-90
2023/07/18 08:32:22;;;;;;;0.50;0.50;;;;;;;19.29;70.32;100994.56;5002605;28;20200;-91
2023/07/18 08:34:48;;;;;;;8.03;1.70;;;;;;;19.33;70.94;100987.94;4998908;28;20227;-90
2023/07/18 08:37:13;;;;;;;0.50;0.50;;;;;;;19.46;71.29;100996.97;5001371;28;20295;-89
2023/07/18 08:39:38;;;;;;;0.00;0.00;;;;;;;19.52;69.30;100983.63;4995418;28;20188;-90
2023/07/18 08:42:08;;;;;;;2.47;1.37;;;;;;;19.43;68.88;100983.84;4997409;28;20683;-90
2023/07/18 08:44:35;;;;;;;1.40;0.97;;;;;;;19.38;68.76;100978.53;5016546;28;20251;-88
2023/07/18 08:47:02;;;;;;;5.73;0.90;;;;;;;19.51;69.40;100977.28;5024291;28;20267;-90
2023/07/18 08:49:29;;;;;;;4.23;0.77;;;;;;;19.68;69.43;100972.59;5023166;28;20219;-90
2023/07/18 08:51:55;;;;;;;0.73;0.73;;;;;;;19.81;69.41;100971.28;5000969;28;20210;-90
2023/07/18 08:54:20;;;;;;;0.70;0.50;;;;;;;19.81;67.67;100954.66;5008813;28;20183;-89
2023/07/18 08:56:46;;;;;;;0.33;0.33;;;;;;;20.08;68.83;100973.09;4997331;28;20197;-90
2023/07/18 08:59:12;;;;;;;0.10;0.00;;;;;;;20.24;67.32;100970.25;5001653;28;20182;-91
2023/07/18 09:01:48;;;;;;;0.73;0.73;;;;;;;20.21;66.48;100957.94;4999654;28;20197;-90
2023/07/18 09:04:13;;;;;;;0.00;0.00;;;;;;;20.18;66.33;100961.44;5013925;28;20187;-90
2023/07/18 09:06:47;;;;;;;0.40;0.20;;;;;;;20.28;67.50;100960.06;5004993;28;20192;-91
2023/07/18 09:09:21;;;;;;;1.40;1.30;;;;;;;20.47;67.54;100959.28;5002026;28;20229;-91
2023/07/18 09:12:13;;;;;;;0.53;0.53;;;;;;;20.56;66.55;100940.44;5011249;28;20208;-91
2023/07/18 09:14:38;;;;;;;0.37;0.37;;;;;;;20.38;66.34;100931.72;4994523;28;20263;-90
2023/07/18 09:17:05;;;;;;;0.03;0.03;;;;;;;20.46;65.11;100932.69;5013136;28;20196;-91
2023/07/18 09:19:41;;;;;;;0.53;0.53;;;;;;;20.47;64.56;100934.31;4995957;28;20650;-90
2023/07/18 09:22:09;;;;;;;2.83;1.20;;;;;;;20.41;65.66;100924.66;5005609;28;20214;-90
2023/07/18 09:24:37;;;;;;;0.43;0.43;;;;;;;20.50;65.21;100926.03;5013705;28;20176;-90
2023/07/18 09:27:15;;;;;;;0.47;0.47;;;;;;;20.68;64.81;100923.59;5025468;28;20255;-90
2023/07/18 09:29:45;;;;;;;0.30;0.30;;;;;;;20.70;64.10;100920.47;5007585;28;20654;-91
2023/07/18 09:32:17;;;;;;;0.23;0.23;;;;;;;20.83;63.09;100908.03;5020702;28;20207;-90
2023/07/18 09:35:09;;;;;;;0.40;0.40;;;;;;;21.04;63.97;100911.16;4996005;28;20200;-92
2023/07/18 09:37:45;;;;;;;0.00;0.00;;;;;;;21.13;62.06;100910.13;5003999;28;20200;-91
2023/07/18 09:40:12;;;;;;;0.80;0.60;;;;;;;21.09;63.62;100902.50;5009270;28;20175;-91
2023/07/18 09:42:40;;;;;;;0.00;0.00;;;;;;;21.35;62.68;100907.31;5003062;28;20224;-91
2023/07/18 09:45:18;;;;;;;0.67;0.67;;;;;;;21.36;63.03;100892.25;5003584;28;20191;-91
2023/07/18 09:47:43;;;;;;;1.10;0.67;;;;;;;21.33;61.09;100881.88;4995933;28;20734;-92
2023/07/18 09:50:13;;;;;;;0.00;0.00;;;;;;;21.34;60.63;100888.25;5000252;28;20207;-90
2023/07/18 09:52:49;;;;;;;0.40;0.40;;;;;;;21.54;61.37;100895.28;4997543;28;20204;-91
2023/07/18 09:55:21;;;;;;;0.00;0.00;;;;;;;21.55;60.37;100888.56;4993895;28;20184;-91
2023/07/18 09:57:48;;;;;;;1.40;0.63;;;;;;;21.68;60.04;100889.94;5011477;28;20213;-91
2023/07/18 10:00:17;;;;;;;0.40;0.40;;;;;;;21.54;57.89;100872.25;5015850;28;20702;-91
2023/07/18 10:02:43;;;;;;;0.00;0.00;;;;;;;21.57;57.57;100874.31;5006218;28;20221;-91
2023/07/18 10:05:10;;;;;;;0.47;0.40;;;;;;;21.64;58.60;100866.84;5017684;28;20182;-91
2023/07/18 10:07:37;;;;;;;0.10;0.10;;;;;;;21.66;57.19;100864.47;5006809;28;20264;-91
2023/07/18 10:10:07;;;;;;;0.10;0.10;;;;;;;21.68;57.64;100867.69;5006583;28;20180;-91
2023/07/18 10:12:54;;;;;;;0.20;0.20;;;;;;;21.12;57.19;100844.56;4999281;28;20258;-91
2023/07/18 10:15:19;;;;;;;0.17;0.17;;;;;;;21.34;58.67;100852.91;5011441;28;20198;-91
2023/07/18 10:17:47;;;;;;;0.10;0.10;;;;;;;21.35;59.81;100856.50;5007414;28;20299;-91
2023/07/18 10:20:21;;;;;;;0.93;0.70;;;;;;;21.14;59.69;100851.38;5007599;28;20409;-90
2023/07/18 10:22:49;;;;;;;1.07;0.50;;;;;;;20.87;61.25;100856.09;5007540;28;20214;-91
2023/07/18 10:25:17;;;;;;;0.57;0.57;;;;;;;20.65;61.53;100854.13;5007513;28;20326;-91
2023/07/18 10:27:45;;;;;;;0.00;0.00;;;;;;;20.68;63.28;100858.91;5024087;28;20200;-91
2023/07/18 10:30:12;;;;;;;0.00;0.00;;;;;;;20.82;62.33;100852.81;4997953;28;20185;-91
2023/07/18 10:32:39;;;;;;;0.77;0.77;;;;;;;20.90;61.98;100841.47;5005968;28;20204;-93
2023/07/18 10:35:10;;;;;;;0.00;0.00;;;;;;;20.98;60.55;100834.88;5023703;28;20180;-92
2023/07/18 10:37:36;;;;;;;0.00;0.00;;;;;;;21.06;59.07;100824.66;4998003;28;20197;-91
2023/07/18 10:40:08;;;;;;;0.00;0.00;;;;;;;21.33;59.41;100831.06;4997799;28;20188;-91
2023/07/18 10:42:34;;;;;;;0.00;0.00;;;;;;;21.20;59.28;100824.06;4998431;28;20196;-90
2023/07/18 10:45:05;;;;;;;0.27;0.10;;;;;;;21.09;60.91;100833.03;5010161;28;20184;-92
2023/07/18 10:47:32;;;;;;;0.00;0.00;;;;;;;21.29;61.35;100835.75;5001716;28;20255;-91
2023/07/18 10:49:58;;;;;;;0.00;0.00;;;;;;;21.41;59.67;100829.16;4997341;28;20549;-90
2023/07/18 10:52:23;;;;;;;0.40;0.40;;;;;;;21.63;58.38;100825.50;4998123;28;20203;-91
2023/07/18 10:54:59;;;;;;;0.00;0.00;;;;;;;21.87;56.86;100818.66;5005949;28;20536;-92
2023/07/18 10:57:26;;;;;;;0.00;0.00;;;;;;;21.62;55.21;100805.25;4998282;28;20207;-91
2023/07/18 10:59:52;;;;;;;0.00;0.00;;;;;;;21.83;55.96;100801.09;4998232;28;20180;-92
2023/07/18 11:02:19;;;;;;;0.00;0.00;;;;;;;21.97;55.00;100804.06;4998115;28;20714;-87
2023/07/18 11:04:45;;;;;;;0.10;0.10;;;;;;;22.04;57.08;100811.72;4997756;28;20180;-90
2023/07/18 11:07:10;;;;;;;0.17;0.17;;;;;;;22.68;56.58;100827.09;4997247;28;20639;-91
2023/07/18 11:09:36;;;;;;;0.40;0.20;;;;;;;23.05;50.97;100807.53;5013314;28;20185;-90
2023/07/18 11:12:03;;;;;;;0.07;0.07;;;;;;;23.05;51.73;100799.16;5000657;28;20201;-90
2023/07/18 11:14:38;;;;;;;0.20;0.10;;;;;;;22.85;51.56;100783.88;5001084;28;20653;-90
2023/07/18 11:17:14;;;;;;;0.00;0.00;;;;;;;22.89;53.13;100803.44;4988266;28;20209;-91
2023/07/18 11:19:39;;;;;;;0.00;0.00;;;;;;;22.77;52.81;100793.34;5010371;28;20296;-91